Skip Navigation Links
NOAA logo - Click to go to the NOAA homepage
NOAA's National Weather Service
Alaska Aviation Weather Unit
  NWS logo - Click to go to the NWS homepage
Left Navbar Graphic     00 AKDT = 08 GMT

   
NOAA is celebrating 200 years of science, service, and stewardship. Visit the NOAA 200th celebration Web site to learn more.
USA.gov is the U.S. Government's official Web portal to all Federal, state and local government Web resources and services.
Facebook
NWS on Facebook

Important Change Regarding the AAWU Web Presence

 

Over the last several months, the AAWU has been working to navigate its webpages to a nationally supported server. Security, as well as other needs, have necessitated the change.  We have been given an extension for the site changeover while we diligently work at addressing feedback received. As of July 14, 2017, aawu.arh.noaa.gov will be discontinued. The new AAWU web address is weather.gov/aawu. It is now live and will run in-parallel with the old site until it is discontinued on July 14, 2017. Please continue to send any feedback or questions regarding the new webpages to nws.ar.aawu.webauthors@noaa.gov.  Thank you for your patience during this time of transition.
AAWU Home :: Display TAF Add Bookmark
TAF PAQT 240540Z 2406/2506  06012KT 6SM BR BKN008 OVC015
     FM240900 06010KT 1 1/2SM BR OVC005
     FM242200 06010KT 4SM BR OVC015=

4323
FTAK31 PAFA 240540
TAFAGA
TAF

PAQT 240244Z AUTO 06011KT 9SM OVC010 01/01 A3005= METAR PAQT 240253Z AUTO 05011KT 10SM OVC010 01/01 A3004 RMK AO2 SLP173 60000 T00110006 58011 TSNO= PAQT 240310Z AUTO 04008KT 10SM SCT010 OVC015 01/01 A3003= PAQT 240337Z AUTO 05010KT 6SM BR SCT009 OVC015 01/01 A3003= PAQT 240344Z AUTO 05013KT 6SM BR BKN009 OVC015 01/01 A3003= METAR PAQT 240353Z AUTO 05011KT 9SM BKN010 OVC015 01/01 A3003 RMK AO2 CIG 006V013 SLP170 T00110006 TSNO= PAQT 240418Z AUTO 06010KT 7SM SCT008 OVC015 01/01 A3003= PAQT 240425Z AUTO 05011KT 10SM BKN010 OVC016 01/01 A3003= METAR PAQT 240453Z AUTO 04008KT 6SM BR BKN008 OVC014 01/01 A3002 RMK AO2 RAB08E17 SLP165 P0000 T00110011 TSNO= PAQT 240537Z AUTO 07010KT 10SM FEW006 OVC011 01/01 A3001= METAR PAQT 240553Z AUTO 06009KT 10SM OVC011 01/01 A3001 RMK AO2 RAB02E15 SLP164 P0000 60000 T00110006 10017 20011 56009 TSNO= PAQT 240646Z AUTO 04006KT 10SM OVC015 02/01 A3000= METAR PAQT 240653Z AUTO 04009KT 10SM OVC012 02/01 A3000 RMK AO2 SLP160 T00170011 TSNO= PAQT 240700Z AUTO 04008KT 10SM BKN009 OVC014 02/01 A3000= METAR PAQT 240753Z AUTO 05008KT 7SM BKN005 OVC010 02/01 A2999 RMK AO2 CIG 004V009 SLP157 T00170011 TSNO=
 Alaska TAF Map

NOAA's National Weather Service
Alaska Aviation Weather Unit
6930 Sand Lake Road
Anchorage, AK 99502-1845
Disclaimer
Credits
Glossary
Privacy Policy
About Us
Career Opportunities
Contact AAWU Internet Services Site last modified: April, 17th 2012